sensor_id;sensor_type;location;lat;lon;timestamp;temperature;humidity
26182;DHT22;13927;51.534;11.866;2022-10-20T00:01:34;4.70;99.90
26182;DHT22;13927;51.534;11.866;2022-10-20T00:04:01;4.70;99.90
26182;DHT22;13927;51.534;11.866;2022-10-20T00:06:29;4.60;99.90
26182;DHT22;13927;51.534;11.866;2022-10-20T00:08:57;4.60;99.90
26182;DHT22;13927;51.534;11.866;2022-10-20T00:11:26;4.60;99.90
26182;DHT22;13927;51.534;11.866;2022-10-20T00:13:54;4.60;99.90
26182;DHT22;13927;51.534;11.866;2022-10-20T00:16:21;4.60;99.90
26182;DHT22;13927;51.534;11.866;2022-10-20T00:18:48;4.60;99.90
26182;DHT22;13927;51.534;11.866;2022-10-20T00:21:22;4.60;99.90
26182;DHT22;13927;51.534;11.866;2022-10-20T00:23:49;4.60;99.90
26182;DHT22;13927;51.534;11.866;2022-10-20T00:26:16;4.60;99.90
26182;DHT22;13927;51.534;11.866;2022-10-20T00:28:46;4.60;99.90
26182;DHT22;13927;51.534;11.866;2022-10-20T00:31:13;4.50;99.90
26182;DHT22;13927;51.534;11.866;2022-10-20T00:33:39;4.50;99.90
26182;DHT22;13927;51.534;11.866;2022-10-20T00:36:07;4.50;99.90
26182;DHT22;13927;51.534;11.866;2022-10-20T00:38:35;4.50;99.90
26182;DHT22;13927;51.534;11.866;2022-10-20T00:41:01;4.50;99.90
26182;DHT22;13927;51.534;11.866;2022-10-20T00:46:19;4.50;99.90
26182;DHT22;13927;51.534;11.866;2022-10-20T00:48:51;4.50;99.90
26182;DHT22;13927;51.534;11.866;2022-10-20T00:51:21;4.40;99.90
26182;DHT22;13927;51.534;11.866;2022-10-20T00:53:50;4.40;99.90
26182;DHT22;13927;51.534;11.866;2022-10-20T00:56:18;4.50;99.90
26182;DHT22;13927;51.534;11.866;2022-10-20T00:58:45;4.40;99.90
26182;DHT22;13927;51.534;11.866;2022-10-20T01:01:12;4.50;99.90
26182;DHT22;13927;51.534;11.866;2022-10-20T01:03:47;4.50;99.90
26182;DHT22;13927;51.534;11.866;2022-10-20T01:06:16;4.40;99.90
26182;DHT22;13927;51.534;11.866;2022-10-20T01:08:43;4.40;99.90
26182;DHT22;13927;51.534;11.866;2022-10-20T01:14:54;4.30;99.90
26182;DHT22;13927;51.534;11.866;2022-10-20T01:28:25;4.10;99.90
26182;DHT22;13927;51.534;11.866;2022-10-20T01:30:59;4.10;99.90
26182;DHT22;13927;51.534;11.866;2022-10-20T01:36:29;4.10;99.90
26182;DHT22;13927;51.534;11.866;2022-10-20T01:39:15;4.10;99.90
26182;DHT22;13927;51.534;11.866;2022-10-20T01:41:55;4.10;99.90
26182;DHT22;13927;51.534;11.866;2022-10-20T01:44:26;4.10;99.90
26182;DHT22;13927;51.534;11.866;2022-10-20T01:46:54;4.00;99.90
26182;DHT22;13927;51.534;11.866;2022-10-20T01:49:21;4.00;99.90
26182;DHT22;13927;51.534;11.866;2022-10-20T01:51:47;4.00;99.90
26182;DHT22;13927;51.534;11.866;2022-10-20T01:54:27;4.00;99.90
26182;DHT22;13927;51.534;11.866;2022-10-20T01:57:01;4.00;99.90
26182;DHT22;13927;51.534;11.866;2022-10-20T02:03:00;4.00;99.90
26182;DHT22;13927;51.534;11.866;2022-10-20T02:06:41;3.90;99.90
26182;DHT22;13927;51.534;11.866;2022-10-20T02:09:20;3.90;99.90
26182;DHT22;13927;51.534;11.866;2022-10-20T02:12:03;3.80;99.90
26182;DHT22;13927;51.534;11.866;2022-10-20T02:14:41;3.80;99.90
26182;DHT22;13927;51.534;11.866;2022-10-20T02:17:12;3.80;99.90
26182;DHT22;13927;51.534;11.866;2022-10-20T02:19:41;3.60;99.90
26182;DHT22;13927;51.534;11.866;2022-10-20T02:22:10;3.50;99.90
26182;DHT22;13927;51.534;11.866;2022-10-20T02:24:39;3.50;99.90
26182;DHT22;13927;51.534;11.866;2022-10-20T02:27:21;3.40;99.90
26182;DHT22;13927;51.534;11.866;2022-10-20T02:30:00;3.40;99.90
26182;DHT22;13927;51.534;11.866;2022-10-20T02:32:31;3.40;99.90
26182;DHT22;13927;51.534;11.866;2022-10-20T02:34:58;3.40;99.90
26182;DHT22;13927;51.534;11.866;2022-10-20T02:37:24;3.40;99.90
26182;DHT22;13927;51.534;11.866;2022-10-20T02:39:49;3.50;99.90
26182;DHT22;13927;51.534;11.866;2022-10-20T02:42:15;3.50;99.90
26182;DHT22;13927;51.534;11.866;2022-10-20T02:44:42;3.50;99.90
26182;DHT22;13927;51.534;11.866;2022-10-20T02:47:07;3.50;99.90
26182;DHT22;13927;51.534;11.866;2022-10-20T02:49:33;3.50;99.90
26182;DHT22;13927;51.534;11.866;2022-10-20T02:51:59;3.50;99.90
26182;DHT22;13927;51.534;11.866;2022-10-20T02:54:25;3.50;99.90
26182;DHT22;13927;51.534;11.866;2022-10-20T02:56:53;3.50;99.90
26182;DHT22;13927;51.534;11.866;2022-10-20T02:59:19;3.50;99.90
26182;DHT22;13927;51.534;11.866;2022-10-20T03:01:46;3.50;99.90
26182;DHT22;13927;51.534;11.866;2022-10-20T03:04:12;3.50;99.90
26182;DHT22;13927;51.534;11.866;2022-10-20T03:06:39;3.50;99.90
26182;DHT22;13927;51.534;11.866;2022-10-20T03:09:05;3.50;99.90
26182;DHT22;13927;51.534;11.866;2022-10-20T03:11:31;3.60;99.90
26182;DHT22;13927;51.534;11.866;2022-10-20T03:13:57;3.60;99.90
26182;DHT22;13927;51.534;11.866;2022-10-20T03:16:22;3.60;99.90
26182;DHT22;13927;51.534;11.866;2022-10-20T03:18:48;3.60;99.90
26182;DHT22;13927;51.534;11.866;2022-10-20T03:21:14;3.60;99.90
26182;DHT22;13927;51.534;11.866;2022-10-20T03:23:39;3.60;99.90
26182;DHT22;13927;51.534;11.866;2022-10-20T03:26:07;3.60;99.90
26182;DHT22;13927;51.534;11.866;2022-10-20T03:28:34;3.50;99.90
26182;DHT22;13927;51.534;11.866;2022-10-20T03:31:00;3.50;99.90
26182;DHT22;13927;51.534;11.866;2022-10-20T03:33:26;3.50;99.90
26182;DHT22;13927;51.534;11.866;2022-10-20T03:35:52;3.50;99.90
26182;DHT22;13927;51.534;11.866;2022-10-20T03:38:17;3.40;99.90
26182;DHT22;13927;51.534;11.866;2022-10-20T03:40:43;3.40;99.90
26182;DHT22;13927;51.534;11.866;2022-10-20T03:43:09;3.40;99.90
26182;DHT22;13927;51.534;11.866;2022-10-20T03:45:35;3.50;99.90
26182;DHT22;13927;51.534;11.866;2022-10-20T03:48:01;3.40;99.90
26182;DHT22;13927;51.534;11.866;2022-10-20T03:50:27;3.50;99.90
26182;DHT22;13927;51.534;11.866;2022-10-20T03:52:53;3.50;99.90
26182;DHT22;13927;51.534;11.866;2022-10-20T03:55:19;3.50;99.90
26182;DHT22;13927;51.534;11.866;2022-10-20T03:57:45;3.50;99.90
26182;DHT22;13927;51.534;11.866;2022-10-20T04:00:11;3.50;99.90
26182;DHT22;13927;51.534;11.866;2022-10-20T04:02:41;3.50;99.90
26182;DHT22;13927;51.534;11.866;2022-10-20T04:05:13;3.50;99.90
26182;DHT22;13927;51.534;11.866;2022-10-20T04:07:44;3.50;99.90
26182;DHT22;13927;51.534;11.866;2022-10-20T04:10:11;3.40;99.90
26182;DHT22;13927;51.534;11.866;2022-10-20T04:12:38;3.30;99.90
26182;DHT22;13927;51.534;11.866;2022-10-20T04:15:05;3.30;99.90
26182;DHT22;13927;51.534;11.866;2022-10-20T04:17:32;3.30;99.90
26182;DHT22;13927;51.534;11.866;2022-10-20T04:19:58;3.20;99.90
26182;DHT22;13927;51.534;11.866;2022-10-20T04:22:23;3.10;99.90
26182;DHT22;13927;51.534;11.866;2022-10-20T04:24:49;3.10;99.90
26182;DHT22;13927;51.534;11.866;2022-10-20T04:27:15;3.10;99.90
26182;DHT22;13927;51.534;11.866;2022-10-20T04:29:41;3.00;99.90
26182;DHT22;13927;51.534;11.866;2022-10-20T04:32:06;3.00;99.90
26182;DHT22;13927;51.534;11.866;2022-10-20T04:34:32;3.00;99.90
26182;DHT22;13927;51.534;11.866;2022-10-20T04:36:58;3.00;99.90
26182;DHT22;13927;51.534;11.866;2022-10-20T04:39:24;3.00;99.90
26182;DHT22;13927;51.534;11.866;2022-10-20T04:41:50;3.00;99.90
26182;DHT22;13927;51.534;11.866;2022-10-20T04:44:16;3.00;99.90
26182;DHT22;13927;51.534;11.866;2022-10-20T04:46:42;3.10;99.90
26182;DHT22;13927;51.534;11.866;2022-10-20T04:49:08;3.10;99.90
26182;DHT22;13927;51.534;11.866;2022-10-20T04:51:34;3.10;99.90
26182;DHT22;13927;51.534;11.866;2022-10-20T04:53:59;3.10;99.90
26182;DHT22;13927;51.534;11.866;2022-10-20T04:56:25;3.10;99.90
26182;DHT22;13927;51.534;11.866;2022-10-20T04:58:53;3.10;99.90
26182;DHT22;13927;51.534;11.866;2022-10-20T05:01:22;3.10;99.90
26182;DHT22;13927;51.534;11.866;2022-10-20T05:03:49;3.20;99.90
26182;DHT22;13927;51.534;11.866;2022-10-20T05:06:29;3.10;99.90
26182;DHT22;13927;51.534;11.866;2022-10-20T05:08:58;3.10;99.90
26182;DHT22;13927;51.534;11.866;2022-10-20T05:11:27;3.10;99.90
26182;DHT22;13927;51.534;11.866;2022-10-20T05:13:54;3.10;99.90
26182;DHT22;13927;51.534;11.866;2022-10-20T05:16:21;3.10;99.90
26182;DHT22;13927;51.534;11.866;2022-10-20T05:18:47;3.10;99.90
26182;DHT22;13927;51.534;11.866;2022-10-20T05:21:25;3.10;99.90
26182;DHT22;13927;51.534;11.866;2022-10-20T05:23:57;3.10;99.90
26182;DHT22;13927;51.534;11.866;2022-10-20T05:26:26;3.00;99.90
26182;DHT22;13927;51.534;11.866;2022-10-20T05:28:53;3.00;99.90
26182;DHT22;13927;51.534;11.866;2022-10-20T05:31:21;3.00;99.90
26182;DHT22;13927;51.534;11.866;2022-10-20T05:33:50;3.00;99.90
26182;DHT22;13927;51.534;11.866;2022-10-20T05:36:19;3.00;99.90
26182;DHT22;13927;51.534;11.866;2022-10-20T05:38:48;3.00;99.90
26182;DHT22;13927;51.534;11.866;2022-10-20T05:41:17;3.00;99.90
26182;DHT22;13927;51.534;11.866;2022-10-20T05:43:47;3.10;99.90
26182;DHT22;13927;51.534;11.866;2022-10-20T05:46:15;3.10;99.90
26182;DHT22;13927;51.534;11.866;2022-10-20T05:48:41;3.10;99.90
26182;DHT22;13927;51.534;11.866;2022-10-20T05:51:15;3.10;99.90
26182;DHT22;13927;51.534;11.866;2022-10-20T05:53:44;3.20;99.90
26182;DHT22;13927;51.534;11.866;2022-10-20T05:56:14;3.20;99.90
26182;DHT22;13927;51.534;11.866;2022-10-20T05:58:42;3.20;99.90
26182;DHT22;13927;51.534;11.866;2022-10-20T06:03:53;3.20;99.90
26182;DHT22;13927;51.534;11.866;2022-10-20T06:06:28;3.30;99.90
26182;DHT22;13927;51.534;11.866;2022-10-20T06:08:56;3.30;99.90
26182;DHT22;13927;51.534;11.866;2022-10-20T06:11:24;3.40;99.90
26182;DHT22;13927;51.534;11.866;2022-10-20T06:13:51;3.40;99.90
26182;DHT22;13927;51.534;11.866;2022-10-20T06:16:25;3.50;99.90
26182;DHT22;13927;51.534;11.866;2022-10-20T06:18:51;3.60;99.90
26182;DHT22;13927;51.534;11.866;2022-10-20T06:21:20;3.70;99.90
26182;DHT22;13927;51.534;11.866;2022-10-20T06:23:47;3.70;99.90
26182;DHT22;13927;51.534;11.866;2022-10-20T06:26:16;3.90;99.90
26182;DHT22;13927;51.534;11.866;2022-10-20T06:28:49;4.00;99.90
26182;DHT22;13927;51.534;11.866;2022-10-20T06:31:24;4.10;99.90
26182;DHT22;13927;51.534;11.866;2022-10-20T06:34:06;4.30;99.90
26182;DHT22;13927;51.534;11.866;2022-10-20T06:36:37;4.50;99.90
26182;DHT22;13927;51.534;11.866;2022-10-20T06:39:06;4.60;99.90
26182;DHT22;13927;51.534;11.866;2022-10-20T06:41:33;4.80;99.90
26182;DHT22;13927;51.534;11.866;2022-10-20T06:43:59;5.00;99.90
26182;DHT22;13927;51.534;11.866;2022-10-20T06:46:27;5.20;99.90
26182;DHT22;13927;51.534;11.866;2022-10-20T06:49:01;5.40;99.90
26182;DHT22;13927;51.534;11.866;2022-10-20T06:51:29;5.60;99.90
26182;DHT22;13927;51.534;11.866;2022-10-20T06:53:55;5.80;99.90
26182;DHT22;13927;51.534;11.866;2022-10-20T06:56:23;6.00;99.90
26182;DHT22;13927;51.534;11.866;2022-10-20T06:58:52;6.10;99.90
26182;DHT22;13927;51.534;11.866;2022-10-20T07:01:27;6.20;99.90
26182;DHT22;13927;51.534;11.866;2022-10-20T07:03:59;6.40;99.90
26182;DHT22;13927;51.534;11.866;2022-10-20T07:06:29;6.50;99.90
26182;DHT22;13927;51.534;11.866;2022-10-20T07:08:57;6.60;99.90
26182;DHT22;13927;51.534;11.866;2022-10-20T07:11:26;6.70;99.90
26182;DHT22;13927;51.534;11.866;2022-10-20T07:13:54;6.80;99.90
26182;DHT22;13927;51.534;11.866;2022-10-20T07:16:23;6.90;99.90
26182;DHT22;13927;51.534;11.866;2022-10-20T07:18:50;7.00;99.90
26182;DHT22;13927;51.534;11.866;2022-10-20T07:21:19;7.10;99.90
26182;DHT22;13927;51.534;11.866;2022-10-20T07:23:48;7.30;99.90
26182;DHT22;13927;51.534;11.866;2022-10-20T07:26:17;7.50;99.90
26182;DHT22;13927;51.534;11.866;2022-10-20T07:28:47;7.60;99.90
26182;DHT22;13927;51.534;11.866;2022-10-20T07:31:18;7.70;99.90
26182;DHT22;13927;51.534;11.866;2022-10-20T07:33:45;7.90;99.90
26182;DHT22;13927;51.534;11.866;2022-10-20T07:36:23;8.00;99.90
26182;DHT22;13927;51.534;11.866;2022-10-20T07:38:53;8.10;99.90
26182;DHT22;13927;51.534;11.866;2022-10-20T07:41:21;8.10;99.90
26182;DHT22;13927;51.534;11.866;2022-10-20T07:43:47;8.20;99.90
26182;DHT22;13927;51.534;11.866;2022-10-20T07:46:13;8.30;99.90
26182;DHT22;13927;51.534;11.866;2022-10-20T07:48:40;8.40;99.90
26182;DHT22;13927;51.534;11.866;2022-10-20T07:54:00;8.60;99.90
26182;DHT22;13927;51.534;11.866;2022-10-20T07:56:33;8.70;99.90
26182;DHT22;13927;51.534;11.866;2022-10-20T07:59:00;8.80;99.90
26182;DHT22;13927;51.534;11.866;2022-10-20T08:01:26;8.90;99.90
26182;DHT22;13927;51.534;11.866;2022-10-20T08:03:52;9.00;99.90
26182;DHT22;13927;51.534;11.866;2022-10-20T08:06:18;9.10;99.90
26182;DHT22;13927;51.534;11.866;2022-10-20T08:08:45;9.10;99.90
26182;DHT22;13927;51.534;11.866;2022-10-20T08:11:11;9.20;99.90
26182;DHT22;13927;51.534;11.866;2022-10-20T08:13:37;9.30;99.90
26182;DHT22;13927;51.534;11.866;2022-10-20T08:16:06;9.40;99.90
26182;DHT22;13927;51.534;11.866;2022-10-20T08:18:33;9.60;99.90
26182;DHT22;13927;51.534;11.866;2022-10-20T08:21:07;9.70;99.90
26182;DHT22;13927;51.534;11.866;2022-10-20T08:23:33;9.90;99.90
26182;DHT22;13927;51.534;11.866;2022-10-20T08:25:59;10.20;99.90
26182;DHT22;13927;51.534;11.866;2022-10-20T08:28:25;10.60;99.90
26182;DHT22;13927;51.534;11.866;2022-10-20T08:30:50;10.80;99.90
26182;DHT22;13927;51.534;11.866;2022-10-20T08:33:16;11.10;99.90
26182;DHT22;13927;51.534;11.866;2022-10-20T08:35:42;11.30;99.90
26182;DHT22;13927;51.534;11.866;2022-10-20T08:38:08;11.70;99.90
26182;DHT22;13927;51.534;11.866;2022-10-20T08:40:36;12.00;99.90
26182;DHT22;13927;51.534;11.866;2022-10-20T08:43:08;12.20;99.90
26182;DHT22;13927;51.534;11.866;2022-10-20T08:45:38;12.60;99.90
26182;DHT22;13927;51.534;11.866;2022-10-20T08:48:04;12.80;99.90
26182;DHT22;13927;51.534;11.866;2022-10-20T08:50:33;13.00;99.90
26182;DHT22;13927;51.534;11.866;2022-10-20T08:52:59;13.20;99.90
26182;DHT22;13927;51.534;11.866;2022-10-20T08:58:17;13.70;99.90
26182;DHT22;13927;51.534;11.866;2022-10-20T09:00:46;14.10;99.90
26182;DHT22;13927;51.534;11.866;2022-10-20T09:03:17;14.40;99.90
26182;DHT22;13927;51.534;11.866;2022-10-20T09:06:00;14.70;99.90
26182;DHT22;13927;51.534;11.866;2022-10-20T09:08:33;15.00;99.90
26182;DHT22;13927;51.534;11.866;2022-10-20T09:11:03;15.20;99.90
26182;DHT22;13927;51.534;11.866;2022-10-20T09:13:32;15.40;99.90
26182;DHT22;13927;51.534;11.866;2022-10-20T09:16:02;15.40;99.90
26182;DHT22;13927;51.534;11.866;2022-10-20T09:18:31;15.40;99.90
26182;DHT22;13927;51.534;11.866;2022-10-20T09:21:03;15.40;99.90
26182;DHT22;13927;51.534;11.866;2022-10-20T09:23:45;15.40;99.90
26182;DHT22;13927;51.534;11.866;2022-10-20T09:26:22;15.50;99.90
26182;DHT22;13927;51.534;11.866;2022-10-20T09:29:04;15.50;99.90
26182;DHT22;13927;51.534;11.866;2022-10-20T09:31:40;15.40;99.90
26182;DHT22;13927;51.534;11.866;2022-10-20T09:34:31;15.40;99.90
26182;DHT22;13927;51.534;11.866;2022-10-20T09:42:13;16.20;99.90
26182;DHT22;13927;51.534;11.866;2022-10-20T09:47:15;16.80;99.90
26182;DHT22;13927;51.534;11.866;2022-10-20T09:49:43;16.90;99.90
26182;DHT22;13927;51.534;11.866;2022-10-20T09:52:21;17.20;99.90
26182;DHT22;13927;51.534;11.866;2022-10-20T09:54:50;17.20;99.90
26182;DHT22;13927;51.534;11.866;2022-10-20T09:57:21;17.30;99.90
26182;DHT22;13927;51.534;11.866;2022-10-20T09:59:49;17.40;99.90
26182;DHT22;13927;51.534;11.866;2022-10-20T10:04:50;17.20;99.90
26182;DHT22;13927;51.534;11.866;2022-10-20T10:09:58;16.90;99.90
26182;DHT22;13927;51.534;11.866;2022-10-20T10:12:32;16.80;99.90
26182;DHT22;13927;51.534;11.866;2022-10-20T10:15:05;17.00;99.90
26182;DHT22;13927;51.534;11.866;2022-10-20T10:17:38;17.10;99.90
26182;DHT22;13927;51.534;11.866;2022-10-20T10:22:36;17.20;99.90
26182;DHT22;13927;51.534;11.866;2022-10-20T10:25:04;17.40;99.90
26182;DHT22;13927;51.534;11.866;2022-10-20T10:27:33;17.50;99.90
26182;DHT22;13927;51.534;11.866;2022-10-20T10:32:55;17.60;99.90
26182;DHT22;13927;51.534;11.866;2022-10-20T10:35:38;17.50;99.90
26182;DHT22;13927;51.534;11.866;2022-10-20T10:38:09;17.60;99.90
26182;DHT22;13927;51.534;11.866;2022-10-20T10:49:15;18.10;99.90
26182;DHT22;13927;51.534;11.866;2022-10-20T10:52:18;18.30;99.90
26182;DHT22;13927;51.534;11.866;2022-10-20T10:55:27;18.20;99.90
26182;DHT22;13927;51.534;11.866;2022-10-20T11:06:38;18.90;99.90
26182;DHT22;13927;51.534;11.866;2022-10-20T11:18:38;19.80;99.90
26182;DHT22;13927;51.534;11.866;2022-10-20T11:21:27;19.90;99.90
26182;DHT22;13927;51.534;11.866;2022-10-20T11:24:14;20.10;99.90
26182;DHT22;13927;51.534;11.866;2022-10-20T11:26:49;19.80;99.90
26182;DHT22;13927;51.534;11.866;2022-10-20T11:29:30;19.40;99.90
26182;DHT22;13927;51.534;11.866;2022-10-20T11:32:41;19.30;99.90
26182;DHT22;13927;51.534;11.866;2022-10-20T11:35:33;19.00;99.90
26182;DHT22;13927;51.534;11.866;2022-10-20T11:38:26;19.00;99.90
26182;DHT22;13927;51.534;11.866;2022-10-20T11:44:29;19.00;99.90
26182;DHT22;13927;51.534;11.866;2022-10-20T11:47:09;19.20;99.90
26182;DHT22;13927;51.534;11.866;2022-10-20T11:49:38;19.40;99.90
26182;DHT22;13927;51.534;11.866;2022-10-20T11:55:06;19.40;99.90
26182;DHT22;13927;51.534;11.866;2022-10-20T12:04:03;19.50;99.90
26182;DHT22;13927;51.534;11.866;2022-10-20T12:15:30;20.10;99.90
26182;DHT22;13927;51.534;11.866;2022-10-20T12:18:14;20.20;99.90
26182;DHT22;13927;51.534;11.866;2022-10-20T12:26:37;20.60;99.90
26182;DHT22;13927;51.534;11.866;2022-10-20T12:34:54;21.20;99.90
26182;DHT22;13927;51.534;11.866;2022-10-20T12:37:33;21.40;99.90
26182;DHT22;13927;51.534;11.866;2022-10-20T12:42:39;21.40;99.90
26182;DHT22;13927;51.534;11.866;2022-10-20T12:47:48;21.40;99.90
26182;DHT22;13927;51.534;11.866;2022-10-20T12:50:36;21.30;99.90
26182;DHT22;13927;51.534;11.866;2022-10-20T12:55:46;21.00;99.90
26182;DHT22;13927;51.534;11.866;2022-10-20T12:58:30;21.10;99.90
26182;DHT22;13927;51.534;11.866;2022-10-20T13:19:54;21.20;99.90
26182;DHT22;13927;51.534;11.866;2022-10-20T13:22:34;21.00;99.90
26182;DHT22;13927;51.534;11.866;2022-10-20T13:25:31;21.00;99.90
26182;DHT22;13927;51.534;11.866;2022-10-20T13:28:27;21.10;99.90
26182;DHT22;13927;51.534;11.866;2022-10-20T13:31:08;21.20;99.90
26182;DHT22;13927;51.534;11.866;2022-10-20T13:34:00;20.90;99.90
26182;DHT22;13927;51.534;11.866;2022-10-20T13:36:54;20.60;99.90
26182;DHT22;13927;51.534;11.866;2022-10-20T13:39:56;20.60;99.90
26182;DHT22;13927;51.534;11.866;2022-10-20T13:46:29;20.80;99.90
26182;DHT22;13927;51.534;11.866;2022-10-20T13:52:03;21.40;99.90
26182;DHT22;13927;51.534;11.866;2022-10-20T13:54:37;21.70;99.90
26182;DHT22;13927;51.534;11.866;2022-10-20T13:57:26;22.20;99.90
26182;DHT22;13927;51.534;11.866;2022-10-20T13:59:56;22.70;99.90
26182;DHT22;13927;51.534;11.866;2022-10-20T14:03:00;23.00;99.90
26182;DHT22;13927;51.534;11.866;2022-10-20T14:05:35;23.00;99.90
26182;DHT22;13927;51.534;11.866;2022-10-20T14:08:07;22.90;99.90
26182;DHT22;13927;51.534;11.866;2022-10-20T14:10:48;22.90;99.90
26182;DHT22;13927;51.534;11.866;2022-10-20T14:13:23;22.50;99.90
26182;DHT22;13927;51.534;11.866;2022-10-20T14:15:55;22.20;99.90
26182;DHT22;13927;51.534;11.866;2022-10-20T14:18:28;21.90;99.90
26182;DHT22;13927;51.534;11.866;2022-10-20T14:21:02;21.50;99.90
26182;DHT22;13927;51.534;11.866;2022-10-20T14:23:37;20.80;99.90
26182;DHT22;13927;51.534;11.866;2022-10-20T14:26:09;20.30;99.90
26182;DHT22;13927;51.534;11.866;2022-10-20T14:28:38;19.80;99.90
26182;DHT22;13927;51.534;11.866;2022-10-20T14:31:05;19.30;99.90
26182;DHT22;13927;51.534;11.866;2022-10-20T14:33:42;18.80;99.90
26182;DHT22;13927;51.534;11.866;2022-10-20T14:36:24;18.50;99.90
26182;DHT22;13927;51.534;11.866;2022-10-20T14:38:53;18.00;99.90
26182;DHT22;13927;51.534;11.866;2022-10-20T14:41:31;17.70;99.90
26182;DHT22;13927;51.534;11.866;2022-10-20T14:44:04;17.50;99.90
26182;DHT22;13927;51.534;11.866;2022-10-20T14:46:44;17.30;99.90
26182;DHT22;13927;51.534;11.866;2022-10-20T14:49:17;17.10;99.90
26182;DHT22;13927;51.534;11.866;2022-10-20T14:52:21;16.90;99.90
26182;DHT22;13927;51.534;11.866;2022-10-20T14:54:49;16.60;99.90
26182;DHT22;13927;51.534;11.866;2022-10-20T14:59:51;16.30;99.90
26182;DHT22;13927;51.534;11.866;2022-10-20T15:02:23;16.20;99.90
26182;DHT22;13927;51.534;11.866;2022-10-20T15:04:51;16.00;99.90
26182;DHT22;13927;51.534;11.866;2022-10-20T15:07:22;16.00;99.90
26182;DHT22;13927;51.534;11.866;2022-10-20T15:10:13;15.80;99.90
26182;DHT22;13927;51.534;11.866;2022-10-20T15:12:44;15.70;99.90
26182;DHT22;13927;51.534;11.866;2022-10-20T15:15:23;15.60;99.90
26182;DHT22;13927;51.534;11.866;2022-10-20T15:20:32;15.40;99.90
26182;DHT22;13927;51.534;11.866;2022-10-20T15:25:59;15.10;99.90
26182;DHT22;13927;51.534;11.866;2022-10-20T15:28:38;15.00;99.90
26182;DHT22;13927;51.534;11.866;2022-10-20T15:31:15;14.80;99.90
26182;DHT22;13927;51.534;11.866;2022-10-20T15:33:45;14.70;99.90
26182;DHT22;13927;51.534;11.866;2022-10-20T15:36:16;14.60;99.90
26182;DHT22;13927;51.534;11.866;2022-10-20T15:38:47;14.40;99.90
26182;DHT22;13927;51.534;11.866;2022-10-20T15:41:17;14.40;99.90
26182;DHT22;13927;51.534;11.866;2022-10-20T15:43:47;14.30;99.90
26182;DHT22;13927;51.534;11.866;2022-10-20T15:46:14;14.20;99.90
26182;DHT22;13927;51.534;11.866;2022-10-20T15:48:42;14.10;99.90
26182;DHT22;13927;51.534;11.866;2022-10-20T15:51:28;14.00;99.90
26182;DHT22;13927;51.534;11.866;2022-10-20T15:53:56;13.90;99.90
26182;DHT22;13927;51.534;11.866;2022-10-20T15:56:22;13.80;99.90
26182;DHT22;13927;51.534;11.866;2022-10-20T15:58:48;13.70;99.90
26182;DHT22;13927;51.534;11.866;2022-10-20T16:01:17;13.60;99.90
26182;DHT22;13927;51.534;11.866;2022-10-20T16:03:45;13.60;99.90
26182;DHT22;13927;51.534;11.866;2022-10-20T16:06:15;13.50;99.90
26182;DHT22;13927;51.534;11.866;2022-10-20T16:08:43;13.30;99.90
26182;DHT22;13927;51.534;11.866;2022-10-20T16:11:11;13.30;99.90
26182;DHT22;13927;51.534;11.866;2022-10-20T16:13:38;13.20;99.90
26182;DHT22;13927;51.534;11.866;2022-10-20T16:16:11;13.10;99.90
26182;DHT22;13927;51.534;11.866;2022-10-20T16:18:38;13.10;99.90
26182;DHT22;13927;51.534;11.866;2022-10-20T16:21:04;13.00;99.90
26182;DHT22;13927;51.534;11.866;2022-10-20T16:23:31;13.00;99.90
26182;DHT22;13927;51.534;11.866;2022-10-20T16:25:59;12.90;99.90
26182;DHT22;13927;51.534;11.866;2022-10-20T16:28:25;12.90;99.90
26182;DHT22;13927;51.534;11.866;2022-10-20T16:31:03;12.80;99.90
26182;DHT22;13927;51.534;11.866;2022-10-20T16:33:30;12.80;99.90
26182;DHT22;13927;51.534;11.866;2022-10-20T16:35:56;12.70;99.90
26182;DHT22;13927;51.534;11.866;2022-10-20T16:38:22;12.70;99.90
26182;DHT22;13927;51.534;11.866;2022-10-20T16:41:03;12.70;99.90
26182;DHT22;13927;51.534;11.866;2022-10-20T16:43:30;12.60;99.90
26182;DHT22;13927;51.534;11.866;2022-10-20T16:45:56;12.60;99.90
26182;DHT22;13927;51.534;11.866;2022-10-20T16:48:23;12.60;99.90
26182;DHT22;13927;51.534;11.866;2022-10-20T16:50:49;12.60;99.90
26182;DHT22;13927;51.534;11.866;2022-10-20T16:53:14;12.50;99.90
26182;DHT22;13927;51.534;11.866;2022-10-20T16:55:50;12.50;99.90
26182;DHT22;13927;51.534;11.866;2022-10-20T16:58:19;12.40;99.90
26182;DHT22;13927;51.534;11.866;2022-10-20T17:00:54;12.30;99.90
26182;DHT22;13927;51.534;11.866;2022-10-20T17:03:29;12.30;99.90
26182;DHT22;13927;51.534;11.866;2022-10-20T17:06:01;12.20;99.90
26182;DHT22;13927;51.534;11.866;2022-10-20T17:08:32;12.10;99.90
26182;DHT22;13927;51.534;11.866;2022-10-20T17:11:01;12.10;99.90
26182;DHT22;13927;51.534;11.866;2022-10-20T17:13:29;12.00;99.90
26182;DHT22;13927;51.534;11.866;2022-10-20T17:15:56;12.00;99.90
26182;DHT22;13927;51.534;11.866;2022-10-20T17:18:27;12.00;99.90
26182;DHT22;13927;51.534;11.866;2022-10-20T17:20:54;12.00;99.90
26182;DHT22;13927;51.534;11.866;2022-10-20T17:23:22;11.90;99.90
26182;DHT22;13927;51.534;11.866;2022-10-20T17:25:49;11.90;99.90
26182;DHT22;13927;51.534;11.866;2022-10-20T17:28:16;11.80;99.90
26182;DHT22;13927;51.534;11.866;2022-10-20T17:30:46;11.80;99.90
26182;DHT22;13927;51.534;11.866;2022-10-20T17:33:12;11.80;99.90
26182;DHT22;13927;51.534;11.866;2022-10-20T17:35:38;11.70;99.90
26182;DHT22;13927;51.534;11.866;2022-10-20T17:38:05;11.70;99.90
26182;DHT22;13927;51.534;11.866;2022-10-20T17:40:40;11.70;99.90
26182;DHT22;13927;51.534;11.866;2022-10-20T17:43:05;11.70;99.90
26182;DHT22;13927;51.534;11.866;2022-10-20T17:45:31;11.70;99.90
26182;DHT22;13927;51.534;11.866;2022-10-20T17:47:57;11.60;99.90
26182;DHT22;13927;51.534;11.866;2022-10-20T17:50:23;11.60;99.90
26182;DHT22;13927;51.534;11.866;2022-10-20T17:52:49;11.60;99.90
26182;DHT22;13927;51.534;11.866;2022-10-20T17:55:15;11.60;99.90
26182;DHT22;13927;51.534;11.866;2022-10-20T17:57:41;11.60;99.90
26182;DHT22;13927;51.534;11.866;2022-10-20T18:00:07;11.70;99.90
26182;DHT22;13927;51.534;11.866;2022-10-20T18:02:33;11.60;99.90
26182;DHT22;13927;51.534;11.866;2022-10-20T18:04:59;11.60;99.90
26182;DHT22;13927;51.534;11.866;2022-10-20T18:07:25;11.50;99.90
26182;DHT22;13927;51.534;11.866;2022-10-20T18:09:52;11.50;99.90
26182;DHT22;13927;51.534;11.866;2022-10-20T18:12:18;11.50;99.90
26182;DHT22;13927;51.534;11.866;2022-10-20T18:14:44;11.50;99.90
26182;DHT22;13927;51.534;11.866;2022-10-20T18:17:10;11.50;99.90
26182;DHT22;13927;51.534;11.866;2022-10-20T18:19:36;11.60;99.90